sensor_id;sensor_type;location;lat;lon;timestamp;P1;durP1;ratioP1;P2;durP2;ratioP2
36353;SDS011;22383;51.114;13.666;2024-03-08T00:00:13;52.92;;;21.67;;
36353;SDS011;22383;51.114;13.666;2024-03-08T00:02:46;62.28;;;23.17;;
36353;SDS011;22383;51.114;13.666;2024-03-08T00:05:14;52.95;;;21.15;;
36353;SDS011;22383;51.114;13.666;2024-03-08T00:07:42;54.13;;;21.92;;
36353;SDS011;22383;51.114;13.666;2024-03-08T00:10:10;52.35;;;21.02;;
36353;SDS011;22383;51.114;13.666;2024-03-08T00:12:41;55.90;;;22.00;;
36353;SDS011;22383;51.114;13.666;2024-03-08T00:15:16;46.35;;;21.02;;
36353;SDS011;22383;51.114;13.666;2024-03-08T00:17:46;55.08;;;21.98;;
36353;SDS011;22383;51.114;13.666;2024-03-08T00:20:15;51.42;;;20.88;;
36353;SDS011;22383;51.114;13.666;2024-03-08T00:22:46;52.67;;;22.90;;
36353;SDS011;22383;51.114;13.666;2024-03-08T00:25:13;57.75;;;22.23;;
36353;SDS011;22383;51.114;13.666;2024-03-08T00:27:41;51.22;;;21.75;;
36353;SDS011;22383;51.114;13.666;2024-03-08T00:30:08;51.60;;;22.65;;
36353;SDS011;22383;51.114;13.666;2024-03-08T00:32:36;57.35;;;22.27;;
36353;SDS011;22383;51.114;13.666;2024-03-08T00:37:34;50.42;;;19.45;;
36353;SDS011;22383;51.114;13.666;2024-03-08T00:40:01;54.47;;;21.23;;
36353;SDS011;22383;51.114;13.666;2024-03-08T00:42:29;55.90;;;21.88;;
36353;SDS011;22383;51.114;13.666;2024-03-08T00:44:56;52.10;;;21.52;;
36353;SDS011;22383;51.114;13.666;2024-03-08T00:47:25;54.92;;;22.05;;
36353;SDS011;22383;51.114;13.666;2024-03-08T00:49:53;52.13;;;21.88;;
36353;SDS011;22383;51.114;13.666;2024-03-08T00:52:24;54.38;;;22.35;;
36353;SDS011;22383;51.114;13.666;2024-03-08T00:54:51;55.72;;;22.60;;
36353;SDS011;22383;51.114;13.666;2024-03-08T00:57:19;61.80;;;22.75;;
36353;SDS011;22383;51.114;13.666;2024-03-08T00:59:46;56.60;;;22.25;;
36353;SDS011;22383;51.114;13.666;2024-03-08T01:02:14;56.60;;;22.10;;
36353;SDS011;22383;51.114;13.666;2024-03-08T01:04:41;54.17;;;21.40;;
36353;SDS011;22383;51.114;13.666;2024-03-08T01:07:08;53.55;;;22.50;;
36353;SDS011;22383;51.114;13.666;2024-03-08T01:09:36;50.97;;;22.48;;
36353;SDS011;22383;51.114;13.666;2024-03-08T01:12:03;57.63;;;22.70;;
36353;SDS011;22383;51.114;13.666;2024-03-08T01:14:30;63.00;;;22.40;;
36353;SDS011;22383;51.114;13.666;2024-03-08T01:16:58;58.25;;;23.70;;
36353;SDS011;22383;51.114;13.666;2024-03-08T01:21:53;53.42;;;21.60;;
36353;SDS011;22383;51.114;13.666;2024-03-08T01:24:22;52.63;;;21.92;;
36353;SDS011;22383;51.114;13.666;2024-03-08T01:26:50;58.92;;;23.50;;
36353;SDS011;22383;51.114;13.666;2024-03-08T01:29:17;60.67;;;22.90;;
36353;SDS011;22383;51.114;13.666;2024-03-08T01:31:44;54.08;;;21.52;;
36353;SDS011;22383;51.114;13.666;2024-03-08T01:34:11;56.17;;;23.27;;
36353;SDS011;22383;51.114;13.666;2024-03-08T01:36:38;57.35;;;23.88;;
36353;SDS011;22383;51.114;13.666;2024-03-08T01:39:06;62.08;;;23.60;;
36353;SDS011;22383;51.114;13.666;2024-03-08T01:41:35;55.00;;;22.67;;
36353;SDS011;22383;51.114;13.666;2024-03-08T01:44:03;59.80;;;24.50;;
36353;SDS011;22383;51.114;13.666;2024-03-08T01:46:30;60.17;;;22.42;;
36353;SDS011;22383;51.114;13.666;2024-03-08T01:51:28;59.38;;;22.80;;
36353;SDS011;22383;51.114;13.666;2024-03-08T01:53:59;56.60;;;22.45;;
36353;SDS011;22383;51.114;13.666;2024-03-08T01:56:29;54.95;;;21.10;;
36353;SDS011;22383;51.114;13.666;2024-03-08T01:58:59;53.85;;;22.65;;
36353;SDS011;22383;51.114;13.666;2024-03-08T02:03:54;53.30;;;20.50;;
36353;SDS011;22383;51.114;13.666;2024-03-08T02:06:21;50.50;;;21.83;;
36353;SDS011;22383;51.114;13.666;2024-03-08T02:08:48;62.30;;;24.58;;
36353;SDS011;22383;51.114;13.666;2024-03-08T02:11:16;61.58;;;23.00;;
36353;SDS011;22383;51.114;13.666;2024-03-08T02:13:44;68.13;;;24.23;;
36353;SDS011;22383;51.114;13.666;2024-03-08T02:16:11;57.85;;;22.70;;
36353;SDS011;22383;51.114;13.666;2024-03-08T02:18:38;56.88;;;22.45;;
36353;SDS011;22383;51.114;13.666;2024-03-08T02:21:07;57.72;;;22.05;;
36353;SDS011;22383;51.114;13.666;2024-03-08T02:23:35;52.83;;;21.98;;
36353;SDS011;22383;51.114;13.666;2024-03-08T02:26:04;59.40;;;25.73;;
36353;SDS011;22383;51.114;13.666;2024-03-08T02:30:59;57.83;;;22.02;;
36353;SDS011;22383;51.114;13.666;2024-03-08T02:33:26;58.97;;;24.40;;
36353;SDS011;22383;51.114;13.666;2024-03-08T02:35:55;60.58;;;24.95;;
36353;SDS011;22383;51.114;13.666;2024-03-08T02:38:24;66.85;;;24.55;;
36353;SDS011;22383;51.114;13.666;2024-03-08T02:43:20;59.25;;;22.35;;
36353;SDS011;22383;51.114;13.666;2024-03-08T02:45:49;64.20;;;22.75;;
36353;SDS011;22383;51.114;13.666;2024-03-08T02:48:17;62.55;;;25.92;;
36353;SDS011;22383;51.114;13.666;2024-03-08T02:50:44;71.93;;;25.15;;
36353;SDS011;22383;51.114;13.666;2024-03-08T02:53:13;58.92;;;23.80;;
36353;SDS011;22383;51.114;13.666;2024-03-08T02:55:41;62.15;;;25.05;;
36353;SDS011;22383;51.114;13.666;2024-03-08T02:58:09;61.45;;;23.58;;
36353;SDS011;22383;51.114;13.666;2024-03-08T03:00:38;67.60;;;25.42;;
36353;SDS011;22383;51.114;13.666;2024-03-08T03:03:08;63.88;;;24.77;;
36353;SDS011;22383;51.114;13.666;2024-03-08T03:05:35;63.22;;;25.08;;
36353;SDS011;22383;51.114;13.666;2024-03-08T03:08:03;63.67;;;25.17;;
36353;SDS011;22383;51.114;13.666;2024-03-08T03:10:36;57.30;;;24.10;;
36353;SDS011;22383;51.114;13.666;2024-03-08T03:13:04;68.55;;;25.95;;
36353;SDS011;22383;51.114;13.666;2024-03-08T03:15:32;70.60;;;25.85;;
36353;SDS011;22383;51.114;13.666;2024-03-08T03:18:01;69.20;;;25.75;;
36353;SDS011;22383;51.114;13.666;2024-03-08T03:20:29;62.78;;;23.90;;
36353;SDS011;22383;51.114;13.666;2024-03-08T03:23:00;68.88;;;26.25;;
36353;SDS011;22383;51.114;13.666;2024-03-08T03:25:30;66.95;;;25.58;;
36353;SDS011;22383;51.114;13.666;2024-03-08T03:28:03;60.30;;;25.23;;
36353;SDS011;22383;51.114;13.666;2024-03-08T03:30:31;67.25;;;25.58;;
36353;SDS011;22383;51.114;13.666;2024-03-08T03:33:02;63.72;;;24.15;;
36353;SDS011;22383;51.114;13.666;2024-03-08T03:35:34;61.17;;;25.90;;
36353;SDS011;22383;51.114;13.666;2024-03-08T03:38:03;69.22;;;26.05;;
36353;SDS011;22383;51.114;13.666;2024-03-08T03:40:39;58.63;;;23.75;;
36353;SDS011;22383;51.114;13.666;2024-03-08T03:43:07;67.15;;;26.77;;
36353;SDS011;22383;51.114;13.666;2024-03-08T03:45:38;61.00;;;25.17;;
36353;SDS011;22383;51.114;13.666;2024-03-08T03:48:09;63.03;;;24.80;;
36353;SDS011;22383;51.114;13.666;2024-03-08T03:50:38;74.97;;;25.40;;
36353;SDS011;22383;51.114;13.666;2024-03-08T03:53:06;65.13;;;25.20;;
36353;SDS011;22383;51.114;13.666;2024-03-08T03:55:36;61.17;;;25.38;;
36353;SDS011;22383;51.114;13.666;2024-03-08T03:58:06;69.93;;;26.75;;
36353;SDS011;22383;51.114;13.666;2024-03-08T04:00:33;71.68;;;25.85;;
36353;SDS011;22383;51.114;13.666;2024-03-08T04:03:01;72.97;;;26.85;;
36353;SDS011;22383;51.114;13.666;2024-03-08T04:05:28;74.88;;;27.63;;
36353;SDS011;22383;51.114;13.666;2024-03-08T04:07:55;70.07;;;26.00;;
36353;SDS011;22383;51.114;13.666;2024-03-08T04:10:24;69.97;;;25.40;;
36353;SDS011;22383;51.114;13.666;2024-03-08T04:12:51;75.25;;;26.98;;
36353;SDS011;22383;51.114;13.666;2024-03-08T04:15:19;74.93;;;26.70;;
36353;SDS011;22383;51.114;13.666;2024-03-08T04:17:47;78.25;;;28.48;;
36353;SDS011;22383;51.114;13.666;2024-03-08T04:20:15;74.35;;;27.02;;
36353;SDS011;22383;51.114;13.666;2024-03-08T04:22:44;65.35;;;25.88;;
36353;SDS011;22383;51.114;13.666;2024-03-08T04:25:16;73.60;;;29.55;;
36353;SDS011;22383;51.114;13.666;2024-03-08T04:27:43;65.05;;;26.00;;
36353;SDS011;22383;51.114;13.666;2024-03-08T04:30:11;73.57;;;26.25;;
36353;SDS011;22383;51.114;13.666;2024-03-08T04:32:39;80.13;;;27.80;;
36353;SDS011;22383;51.114;13.666;2024-03-08T04:35:08;80.32;;;29.90;;
36353;SDS011;22383;51.114;13.666;2024-03-08T04:37:35;73.28;;;27.23;;
36353;SDS011;22383;51.114;13.666;2024-03-08T04:40:03;79.28;;;29.73;;
36353;SDS011;22383;51.114;13.666;2024-03-08T04:42:31;72.85;;;28.38;;
36353;SDS011;22383;51.114;13.666;2024-03-08T04:44:59;75.22;;;28.50;;
36353;SDS011;22383;51.114;13.666;2024-03-08T04:47:27;78.43;;;29.17;;
36353;SDS011;22383;51.114;13.666;2024-03-08T04:49:55;72.60;;;29.08;;
36353;SDS011;22383;51.114;13.666;2024-03-08T04:52:23;73.97;;;26.40;;
36353;SDS011;22383;51.114;13.666;2024-03-08T04:54:50;71.72;;;27.92;;
36353;SDS011;22383;51.114;13.666;2024-03-08T04:57:17;82.68;;;29.50;;
36353;SDS011;22383;51.114;13.666;2024-03-08T04:59:47;78.55;;;29.33;;
36353;SDS011;22383;51.114;13.666;2024-03-08T05:02:15;78.25;;;28.40;;
36353;SDS011;22383;51.114;13.666;2024-03-08T05:04:42;69.32;;;26.73;;
36353;SDS011;22383;51.114;13.666;2024-03-08T05:09:37;66.38;;;25.75;;
36353;SDS011;22383;51.114;13.666;2024-03-08T05:14:32;72.25;;;24.95;;
36353;SDS011;22383;51.114;13.666;2024-03-08T05:16:59;82.55;;;27.73;;
36353;SDS011;22383;51.114;13.666;2024-03-08T05:19:27;87.88;;;30.27;;
36353;SDS011;22383;51.114;13.666;2024-03-08T05:22:00;86.80;;;29.88;;
36353;SDS011;22383;51.114;13.666;2024-03-08T05:24:28;77.68;;;30.15;;
36353;SDS011;22383;51.114;13.666;2024-03-08T05:26:57;75.45;;;28.23;;
36353;SDS011;22383;51.114;13.666;2024-03-08T05:29:26;82.55;;;29.95;;
36353;SDS011;22383;51.114;13.666;2024-03-08T05:34:21;72.68;;;26.38;;
36353;SDS011;22383;51.114;13.666;2024-03-08T05:36:49;76.43;;;29.27;;
36353;SDS011;22383;51.114;13.666;2024-03-08T05:39:17;76.78;;;28.75;;
36353;SDS011;22383;51.114;13.666;2024-03-08T05:41:46;86.38;;;29.95;;
36353;SDS011;22383;51.114;13.666;2024-03-08T05:49:08;74.53;;;25.40;;
36353;SDS011;22383;51.114;13.666;2024-03-08T05:51:38;80.10;;;29.77;;
36353;SDS011;22383;51.114;13.666;2024-03-08T05:54:07;76.78;;;30.48;;
36353;SDS011;22383;51.114;13.666;2024-03-08T05:56:42;76.07;;;28.90;;
36353;SDS011;22383;51.114;13.666;2024-03-08T05:59:11;89.40;;;30.98;;
36353;SDS011;22383;51.114;13.666;2024-03-08T06:01:38;76.65;;;29.10;;
36353;SDS011;22383;51.114;13.666;2024-03-08T06:04:08;77.80;;;28.88;;
36353;SDS011;22383;51.114;13.666;2024-03-08T06:06:37;90.25;;;31.50;;
36353;SDS011;22383;51.114;13.666;2024-03-08T06:09:05;81.88;;;29.17;;
36353;SDS011;22383;51.114;13.666;2024-03-08T06:11:44;73.10;;;27.60;;
36353;SDS011;22383;51.114;13.666;2024-03-08T06:14:12;77.40;;;28.90;;
36353;SDS011;22383;51.114;13.666;2024-03-08T06:16:39;82.63;;;32.50;;
36353;SDS011;22383;51.114;13.666;2024-03-08T06:19:07;87.75;;;30.33;;
36353;SDS011;22383;51.114;13.666;2024-03-08T06:21:34;78.78;;;30.60;;
36353;SDS011;22383;51.114;13.666;2024-03-08T06:24:02;93.13;;;31.90;;
36353;SDS011;22383;51.114;13.666;2024-03-08T06:26:29;78.85;;;30.15;;
36353;SDS011;22383;51.114;13.666;2024-03-08T06:28:57;74.22;;;30.05;;
36353;SDS011;22383;51.114;13.666;2024-03-08T06:31:25;73.43;;;30.67;;
36353;SDS011;22383;51.114;13.666;2024-03-08T06:33:52;76.25;;;29.88;;
36353;SDS011;22383;51.114;13.666;2024-03-08T06:36:23;77.40;;;28.73;;
36353;SDS011;22383;51.114;13.666;2024-03-08T06:41:18;76.13;;;29.08;;
36353;SDS011;22383;51.114;13.666;2024-03-08T06:43:45;72.65;;;28.75;;
36353;SDS011;22383;51.114;13.666;2024-03-08T06:46:17;79.35;;;29.63;;
36353;SDS011;22383;51.114;13.666;2024-03-08T06:48:45;77.95;;;29.75;;
36353;SDS011;22383;51.114;13.666;2024-03-08T06:51:13;76.95;;;29.38;;
36353;SDS011;22383;51.114;13.666;2024-03-08T06:53:41;81.95;;;29.33;;
36353;SDS011;22383;51.114;13.666;2024-03-08T06:56:08;74.50;;;29.58;;
36353;SDS011;22383;51.114;13.666;2024-03-08T06:58:35;73.07;;;29.85;;
36353;SDS011;22383;51.114;13.666;2024-03-08T07:01:03;79.05;;;29.15;;
36353;SDS011;22383;51.114;13.666;2024-03-08T07:03:35;75.88;;;29.95;;
36353;SDS011;22383;51.114;13.666;2024-03-08T07:06:02;78.10;;;28.00;;
36353;SDS011;22383;51.114;13.666;2024-03-08T07:08:30;77.88;;;28.88;;
36353;SDS011;22383;51.114;13.666;2024-03-08T07:10:58;76.13;;;30.20;;
36353;SDS011;22383;51.114;13.666;2024-03-08T07:13:26;73.53;;;29.50;;
36353;SDS011;22383;51.114;13.666;2024-03-08T07:15:56;82.55;;;30.23;;
36353;SDS011;22383;51.114;13.666;2024-03-08T07:18:23;69.85;;;28.42;;
36353;SDS011;22383;51.114;13.666;2024-03-08T07:20:51;66.95;;;28.48;;
36353;SDS011;22383;51.114;13.666;2024-03-08T07:23:18;76.18;;;27.67;;
36353;SDS011;22383;51.114;13.666;2024-03-08T07:26:04;80.38;;;29.75;;
36353;SDS011;22383;51.114;13.666;2024-03-08T07:28:31;65.13;;;24.70;;
36353;SDS011;22383;51.114;13.666;2024-03-08T07:30:59;71.95;;;27.48;;
36353;SDS011;22383;51.114;13.666;2024-03-08T07:33:45;63.38;;;26.25;;
36353;SDS011;22383;51.114;13.666;2024-03-08T07:36:12;72.50;;;27.80;;
36353;SDS011;22383;51.114;13.666;2024-03-08T07:38:41;73.40;;;27.27;;
36353;SDS011;22383;51.114;13.666;2024-03-08T07:41:10;72.78;;;29.42;;
36353;SDS011;22383;51.114;13.666;2024-03-08T07:43:41;71.90;;;28.10;;
36353;SDS011;22383;51.114;13.666;2024-03-08T07:46:09;74.45;;;30.25;;
36353;SDS011;22383;51.114;13.666;2024-03-08T07:48:37;69.90;;;28.25;;
36353;SDS011;22383;51.114;13.666;2024-03-08T07:53:33;83.57;;;27.95;;
36353;SDS011;22383;51.114;13.666;2024-03-08T07:56:00;67.90;;;27.52;;
36353;SDS011;22383;51.114;13.666;2024-03-08T07:58:27;70.53;;;27.77;;
36353;SDS011;22383;51.114;13.666;2024-03-08T08:00:55;69.88;;;28.38;;
36353;SDS011;22383;51.114;13.666;2024-03-08T08:03:22;66.68;;;27.85;;
36353;SDS011;22383;51.114;13.666;2024-03-08T08:05:49;76.32;;;26.40;;
36353;SDS011;22383;51.114;13.666;2024-03-08T08:08:16;62.33;;;26.60;;
36353;SDS011;22383;51.114;13.666;2024-03-08T08:10:44;63.97;;;27.40;;
36353;SDS011;22383;51.114;13.666;2024-03-08T08:13:11;58.50;;;24.60;;
36353;SDS011;22383;51.114;13.666;2024-03-08T08:15:39;64.15;;;24.95;;
36353;SDS011;22383;51.114;13.666;2024-03-08T08:18:06;63.17;;;26.60;;
36353;SDS011;22383;51.114;13.666;2024-03-08T08:20:37;57.95;;;25.00;;
36353;SDS011;22383;51.114;13.666;2024-03-08T08:23:04;60.92;;;25.02;;
36353;SDS011;22383;51.114;13.666;2024-03-08T08:25:31;63.95;;;25.95;;
36353;SDS011;22383;51.114;13.666;2024-03-08T08:28:02;55.75;;;22.63;;
36353;SDS011;22383;51.114;13.666;2024-03-08T08:30:31;56.78;;;23.75;;
36353;SDS011;22383;51.114;13.666;2024-03-08T08:33:00;57.10;;;22.60;;
36353;SDS011;22383;51.114;13.666;2024-03-08T08:35:28;53.60;;;23.55;;
36353;SDS011;22383;51.114;13.666;2024-03-08T08:37:55;57.50;;;23.95;;
36353;SDS011;22383;51.114;13.666;2024-03-08T08:42:54;54.70;;;22.30;;
36353;SDS011;22383;51.114;13.666;2024-03-08T08:45:24;55.20;;;22.80;;
36353;SDS011;22383;51.114;13.666;2024-03-08T08:47:53;51.38;;;22.70;;
36353;SDS011;22383;51.114;13.666;2024-03-08T08:50:22;56.60;;;23.45;;
36353;SDS011;22383;51.114;13.666;2024-03-08T08:52:55;54.45;;;21.52;;
36353;SDS011;22383;51.114;13.666;2024-03-08T08:55:22;55.10;;;22.88;;
36353;SDS011;22383;51.114;13.666;2024-03-08T08:57:53;49.25;;;21.15;;
36353;SDS011;22383;51.114;13.666;2024-03-08T09:00:21;51.40;;;22.08;;
36353;SDS011;22383;51.114;13.666;2024-03-08T09:02:50;57.70;;;23.83;;
36353;SDS011;22383;51.114;13.666;2024-03-08T09:05:18;53.05;;;23.25;;
36353;SDS011;22383;51.114;13.666;2024-03-08T09:07:45;53.08;;;22.45;;
36353;SDS011;22383;51.114;13.666;2024-03-08T09:10:12;48.97;;;22.42;;
36353;SDS011;22383;51.114;13.666;2024-03-08T09:12:44;50.13;;;21.77;;
36353;SDS011;22383;51.114;13.666;2024-03-08T09:15:12;48.00;;;21.30;;
36353;SDS011;22383;51.114;13.666;2024-03-08T09:17:40;42.45;;;21.60;;
36353;SDS011;22383;51.114;13.666;2024-03-08T09:20:08;46.20;;;21.75;;
36353;SDS011;22383;51.114;13.666;2024-03-08T09:22:46;44.38;;;21.42;;
36353;SDS011;22383;51.114;13.666;2024-03-08T09:25:13;45.63;;;21.23;;
36353;SDS011;22383;51.114;13.666;2024-03-08T09:27:41;47.28;;;21.30;;
36353;SDS011;22383;51.114;13.666;2024-03-08T09:30:08;47.50;;;20.67;;
36353;SDS011;22383;51.114;13.666;2024-03-08T09:32:36;47.75;;;21.38;;
36353;SDS011;22383;51.114;13.666;2024-03-08T09:35:04;48.85;;;21.23;;
36353;SDS011;22383;51.114;13.666;2024-03-08T09:37:35;45.70;;;21.02;;
36353;SDS011;22383;51.114;13.666;2024-03-08T09:40:02;40.08;;;19.58;;
36353;SDS011;22383;51.114;13.666;2024-03-08T09:42:37;41.28;;;18.73;;
36353;SDS011;22383;51.114;13.666;2024-03-08T09:45:05;46.92;;;18.92;;
36353;SDS011;22383;51.114;13.666;2024-03-08T09:47:40;44.13;;;19.15;;
36353;SDS011;22383;51.114;13.666;2024-03-08T09:50:09;45.92;;;20.10;;
36353;SDS011;22383;51.114;13.666;2024-03-08T09:52:41;45.08;;;19.52;;
36353;SDS011;22383;51.114;13.666;2024-03-08T09:55:10;47.30;;;19.55;;
36353;SDS011;22383;51.114;13.666;2024-03-08T09:57:40;39.67;;;17.27;;
36353;SDS011;22383;51.114;13.666;2024-03-08T10:00:30;41.35;;;19.15;;
36353;SDS011;22383;51.114;13.666;2024-03-08T10:03:00;44.90;;;19.20;;
36353;SDS011;22383;51.114;13.666;2024-03-08T10:05:30;37.03;;;18.15;;
36353;SDS011;22383;51.114;13.666;2024-03-08T10:07:59;43.17;;;18.30;;
36353;SDS011;22383;51.114;13.666;2024-03-08T10:10:26;36.05;;;17.38;;
36353;SDS011;22383;51.114;13.666;2024-03-08T10:12:53;43.95;;;19.50;;
36353;SDS011;22383;51.114;13.666;2024-03-08T10:15:22;41.78;;;18.70;;
36353;SDS011;22383;51.114;13.666;2024-03-08T10:17:49;41.97;;;17.83;;
36353;SDS011;22383;51.114;13.666;2024-03-08T10:20:16;37.28;;;17.15;;
36353;SDS011;22383;51.114;13.666;2024-03-08T10:22:45;37.42;;;16.77;;
36353;SDS011;22383;51.114;13.666;2024-03-08T10:25:32;38.17;;;16.60;;
36353;SDS011;22383;51.114;13.666;2024-03-08T10:30:30;34.53;;;15.52;;
36353;SDS011;22383;51.114;13.666;2024-03-08T10:32:58;30.67;;;15.10;;
36353;SDS011;22383;51.114;13.666;2024-03-08T10:35:25;35.25;;;15.65;;
36353;SDS011;22383;51.114;13.666;2024-03-08T10:37:54;40.90;;;17.08;;
36353;SDS011;22383;51.114;13.666;2024-03-08T10:40:27;33.60;;;16.42;;
36353;SDS011;22383;51.114;13.666;2024-03-08T10:48:24;37.43;;;17.93;;
36353;SDS011;22383;51.114;13.666;2024-03-08T10:51:05;37.70;;;15.82;;
36353;SDS011;22383;51.114;13.666;2024-03-08T10:53:34;38.33;;;16.83;;
36353;SDS011;22383;51.114;13.666;2024-03-08T10:56:06;40.47;;;17.90;;
36353;SDS011;22383;51.114;13.666;2024-03-08T10:58:34;36.58;;;16.50;;
36353;SDS011;22383;51.114;13.666;2024-03-08T11:01:03;34.85;;;16.63;;
36353;SDS011;22383;51.114;13.666;2024-03-08T11:03:49;37.00;;;16.25;;
36353;SDS011;22383;51.114;13.666;2024-03-08T11:06:30;33.90;;;16.63;;
36353;SDS011;22383;51.114;13.666;2024-03-08T11:09:01;35.05;;;16.65;;
36353;SDS011;22383;51.114;13.666;2024-03-08T11:11:28;36.65;;;18.60;;
36353;SDS011;22383;51.114;13.666;2024-03-08T11:14:02;38.55;;;17.77;;
36353;SDS011;22383;51.114;13.666;2024-03-08T11:19:01;36.83;;;17.88;;
36353;SDS011;22383;51.114;13.666;2024-03-08T11:21:32;39.30;;;17.45;;
36353;SDS011;22383;51.114;13.666;2024-03-08T11:24:07;37.13;;;17.38;;
36353;SDS011;22383;51.114;13.666;2024-03-08T11:26:40;33.92;;;16.55;;
36353;SDS011;22383;51.114;13.666;2024-03-08T11:32:04;36.83;;;16.33;;
36353;SDS011;22383;51.114;13.666;2024-03-08T11:34:32;33.70;;;16.13;;
36353;SDS011;22383;51.114;13.666;2024-03-08T11:37:05;40.55;;;16.95;;
36353;SDS011;22383;51.114;13.666;2024-03-08T11:39:39;34.95;;;15.57;;
36353;SDS011;22383;51.114;13.666;2024-03-08T11:42:07;31.35;;;16.05;;
36353;SDS011;22383;51.114;13.666;2024-03-08T11:44:35;35.50;;;16.60;;
36353;SDS011;22383;51.114;13.666;2024-03-08T11:47:07;39.40;;;16.40;;
36353;SDS011;22383;51.114;13.666;2024-03-08T11:49:37;35.50;;;16.23;;
36353;SDS011;22383;51.114;13.666;2024-03-08T11:52:06;37.75;;;16.83;;
36353;SDS011;22383;51.114;13.666;2024-03-08T11:54:41;32.20;;;15.90;;
36353;SDS011;22383;51.114;13.666;2024-03-08T11:57:10;28.98;;;14.40;;
36353;SDS011;22383;51.114;13.666;2024-03-08T11:59:38;30.55;;;15.15;;
36353;SDS011;22383;51.114;13.666;2024-03-08T12:02:05;27.58;;;14.18;;
36353;SDS011;22383;51.114;13.666;2024-03-08T12:04:33;25.50;;;13.50;;
36353;SDS011;22383;51.114;13.666;2024-03-08T12:07:03;27.80;;;13.38;;
36353;SDS011;22383;51.114;13.666;2024-03-08T12:09:35;33.53;;;14.77;;
36353;SDS011;22383;51.114;13.666;2024-03-08T12:12:06;28.83;;;14.23;;
36353;SDS011;22383;51.114;13.666;2024-03-08T12:14:35;25.85;;;13.00;;
36353;SDS011;22383;51.114;13.666;2024-03-08T12:17:03;23.05;;;12.80;;
36353;SDS011;22383;51.114;13.666;2024-03-08T12:19:32;29.63;;;14.18;;
36353;SDS011;22383;51.114;13.666;2024-03-08T12:22:07;23.75;;;12.38;;
36353;SDS011;22383;51.114;13.666;2024-03-08T12:24:37;29.77;;;13.18;;
36353;SDS011;22383;51.114;13.666;2024-03-08T12:27:17;25.38;;;12.75;;
36353;SDS011;22383;51.114;13.666;2024-03-08T12:29:46;27.00;;;12.13;;
36353;SDS011;22383;51.114;13.666;2024-03-08T12:32:13;26.17;;;12.48;;
36353;SDS011;22383;51.114;13.666;2024-03-08T12:34:41;28.02;;;13.27;;
36353;SDS011;22383;51.114;13.666;2024-03-08T12:37:08;32.92;;;13.60;;
36353;SDS011;22383;51.114;13.666;2024-03-08T12:39:36;25.10;;;12.57;;
36353;SDS011;22383;51.114;13.666;2024-03-08T12:42:04;22.15;;;11.55;;
36353;SDS011;22383;51.114;13.666;2024-03-08T12:44:33;26.42;;;12.18;;
36353;SDS011;22383;51.114;13.666;2024-03-08T12:47:00;26.48;;;13.50;;
36353;SDS011;22383;51.114;13.666;2024-03-08T12:49:27;29.67;;;12.48;;
36353;SDS011;22383;51.114;13.666;2024-03-08T12:51:55;30.75;;;15.55;;
36353;SDS011;22383;51.114;13.666;2024-03-08T12:54:22;27.58;;;14.05;;
36353;SDS011;22383;51.114;13.666;2024-03-08T12:56:51;48.15;;;20.80;;
36353;SDS011;22383;51.114;13.666;2024-03-08T12:59:21;25.35;;;12.48;;
36353;SDS011;22383;51.114;13.666;2024-03-08T13:04:18;23.63;;;11.77;;
36353;SDS011;22383;51.114;13.666;2024-03-08T13:06:48;21.80;;;11.15;;
36353;SDS011;22383;51.114;13.666;2024-03-08T13:09:21;21.23;;;10.70;;
36353;SDS011;22383;51.114;13.666;2024-03-08T13:11:49;21.67;;;11.30;;
36353;SDS011;22383;51.114;13.666;2024-03-08T13:14:16;22.80;;;11.20;;
36353;SDS011;22383;51.114;13.666;2024-03-08T13:16:43;20.58;;;11.05;;
36353;SDS011;22383;51.114;13.666;2024-03-08T13:19:15;26.30;;;11.20;;
36353;SDS011;22383;51.114;13.666;2024-03-08T13:24:11;42.30;;;20.92;;
36353;SDS011;22383;51.114;13.666;2024-03-08T13:26:38;40.78;;;18.58;;
36353;SDS011;22383;51.114;13.666;2024-03-08T13:29:06;29.48;;;13.48;;
36353;SDS011;22383;51.114;13.666;2024-03-08T13:31:33;21.10;;;11.10;;
36353;SDS011;22383;51.114;13.666;2024-03-08T13:34:03;23.58;;;11.63;;
36353;SDS011;22383;51.114;13.666;2024-03-08T13:36:32;22.30;;;10.77;;
36353;SDS011;22383;51.114;13.666;2024-03-08T13:39:06;24.65;;;11.60;;
36353;SDS011;22383;51.114;13.666;2024-03-08T13:41:42;21.67;;;11.10;;
36353;SDS011;22383;51.114;13.666;2024-03-08T13:44:09;22.17;;;10.98;;
36353;SDS011;22383;51.114;13.666;2024-03-08T13:46:36;21.20;;;11.60;;
36353;SDS011;22383;51.114;13.666;2024-03-08T13:49:05;24.27;;;10.98;;
36353;SDS011;22383;51.114;13.666;2024-03-08T13:51:35;22.42;;;10.10;;
36353;SDS011;22383;51.114;13.666;2024-03-08T13:54:02;18.90;;;9.90;;
36353;SDS011;22383;51.114;13.666;2024-03-08T13:56:33;22.75;;;9.35;;
36353;SDS011;22383;51.114;13.666;2024-03-08T13:59:00;22.50;;;10.55;;
36353;SDS011;22383;51.114;13.666;2024-03-08T14:01:29;18.92;;;9.80;;
36353;SDS011;22383;51.114;13.666;2024-03-08T14:06:24;19.42;;;9.35;;
36353;SDS011;22383;51.114;13.666;2024-03-08T14:08:57;16.88;;;9.15;;
36353;SDS011;22383;51.114;13.666;2024-03-08T14:11:25;19.48;;;9.82;;
36353;SDS011;22383;51.114;13.666;2024-03-08T14:13:52;18.40;;;9.77;;
36353;SDS011;22383;51.114;13.666;2024-03-08T14:16:20;24.65;;;9.85;;
36353;SDS011;22383;51.114;13.666;2024-03-08T14:18:48;22.15;;;9.77;;
36353;SDS011;22383;51.114;13.666;2024-03-08T14:21:15;14.00;;;7.70;;
36353;SDS011;22383;51.114;13.666;2024-03-08T14:23:44;21.10;;;9.15;;
36353;SDS011;22383;51.114;13.666;2024-03-08T14:26:12;21.75;;;10.07;;
36353;SDS011;22383;51.114;13.666;2024-03-08T14:28:39;20.98;;;9.65;;
36353;SDS011;22383;51.114;13.666;2024-03-08T14:31:06;21.92;;;10.43;;
36353;SDS011;22383;51.114;13.666;2024-03-08T14:33:38;16.92;;;9.77;;
36353;SDS011;22383;51.114;13.666;2024-03-08T14:36:05;16.17;;;8.48;;
36353;SDS011;22383;51.114;13.666;2024-03-08T14:38:33;18.42;;;9.18;;
36353;SDS011;22383;51.114;13.666;2024-03-08T14:41:02;16.90;;;8.45;;
36353;SDS011;22383;51.114;13.666;2024-03-08T14:43:31;16.88;;;8.18;;
36353;SDS011;22383;51.114;13.666;2024-03-08T14:45:59;18.92;;;7.82;;
36353;SDS011;22383;51.114;13.666;2024-03-08T14:48:26;15.93;;;8.52;;
36353;SDS011;22383;51.114;13.666;2024-03-08T14:50:54;15.73;;;7.70;;
36353;SDS011;22383;51.114;13.666;2024-03-08T14:53:21;16.92;;;7.57;;
36353;SDS011;22383;51.114;13.666;2024-03-08T14:55:48;14.45;;;7.50;;
36353;SDS011;22383;51.114;13.666;2024-03-08T14:58:15;17.73;;;7.95;;
36353;SDS011;22383;51.114;13.666;2024-03-08T15:00:43;14.20;;;7.22;;
36353;SDS011;22383;51.114;13.666;2024-03-08T15:03:10;20.50;;;8.15;;
36353;SDS011;22383;51.114;13.666;2024-03-08T15:05:40;16.42;;;7.78;;
36353;SDS011;22383;51.114;13.666;2024-03-08T15:08:14;16.83;;;6.72;;
36353;SDS011;22383;51.114;13.666;2024-03-08T15:10:47;14.13;;;6.85;;
36353;SDS011;22383;51.114;13.666;2024-03-08T15:13:21;15.90;;;7.43;;
36353;SDS011;22383;51.114;13.666;2024-03-08T15:15:50;14.88;;;7.57;;